Aérodrome :
LOGIN :

S'inscrire | Disclaimer

   EN    FR    IT 

 










Légende :    VFR   VFR Marginal   IFR   IFR Intensif   IFR Très Intensif
Visi : 
Plafond : 
>= 8 km
>= 3000ft
5 à 8 km
1000 à 3000 ft
1500m à 5 km
500 à 1000 ft
800 à 1500m
200 à 500 ft
< 800m
< 200 ft
Symboles :   Orages  Brouillard  Fortes neiges  Fortes précipitations  Vent > 20 kt
SIGMETs :   Divers  Orages  Givrage  Turbulence  Onde Orograph.  Cendres Volcan.






- Altitude de l'aérodrome : 203 ft
- Code IATA : XMJ


LFBM - Mont-De-Marsan

DERNIER METAR :
  • 262330Z AUTO 20006KT 170V250 9999 -RA FEW007/// BKN058/// BKN072/// ///TCU 10/09 Q1016 TEMPO SCT005 BKN040

METARs EXPIRÉS :
  • 262300Z AUTO 21004KT 170V230 9999 SCT034/// BKN043/// BKN052/// ///TCU 10/09 Q1016 TEMPO SCT005 BKN040
  • 262230Z AUTO 21004KT 170V260 9999 ///TCU 10/09 Q1016 TEMPO SCT005 BKN040
  • 262200Z AUTO 21005KT 150V240 9999 ///TCU 10/09 Q1016 BECMG NSC
  • 262130Z AUTO 19005KT 9999 FEW027/// SCT042/// BKN060/// ///CB 10/09 Q1016 BECMG NSC
  • 262100Z AUTO 22004KT 180V250 9999 BKN047/// OVC060/// ///CB 10/09 Q1016 BECMG NSC

TAF TAF LFBM
Valide du 26 à 21h jusqu'au 27 à 21h UTC


262000Z 2621/2721 21010KT CAVOK
TEMPO 2700/2706 SCT005 BKN040



MET'MAP, la Météo Aéronautique d'un coup d'oeil ! - Copyright ORBIFLY Décembre 2007 - Disclaimer

ORBIFLY MET'MAP TEAM :

Programmation & Développement : Alexandra Zaïnal
Sur une idée originale de : Baudouin d'Aumeries
Assistance à la programmation : Marc-Olivier Méhu
Soutien technique & logistique : Manuel Goepfert

Contact : metmap@orbifly.com




SOURCES & CREDITS :

   NOAA